Ahmed Suqrat

Olheiro - Al Jazira
3 Dez 2028
Domingo
Processo

Personalidade

Adaptabilidade (5) Ambição (4) Controvérsia (12) Lealdade (6) Pressão (6) Profissionalismo (9) Espírito Esportivo (15) Temperamento (10)

Perfil

Estilo de Treinamento Democrático
Licença Continental A
Determinação 13
Gestão de Pessoas 12
Motivação 12
Disciplina 13
Satisfação no Trabalho
100%
Fadiga
0%
Função Olheiro
Salário 89.2K p/s
Contrato 14.03.2030

Desempenho

Comportamento Bom
Eficácia do Treinamento
39%
Desenvolvimento do Jogador
50%
Prevenção de Lesões
60%
Implementação Tática
30%

Eventos Recentes

Avaliou um jogador agora
Participou de uma reunião de recrutamento agora
Avaliou um jogador agora
Avaliou um jogador agora
Avaliou um jogador agora
Avaliou um jogador agora
Avaliou um jogador agora
Avaliou um jogador 7d atrás

Monitorando agora

423
Jogador Clube Status Habilidade Confiança Observado Última observação Último voto
Alexandro Bernabei Internacional Ativo 140 / 131 40% 4 02.12.2028 -
Martinelli Fluminense Ativo 144 / 150 40% 2 02.12.2028 -
Vitinho Botafogo Ativo 137 / 142 40% 3 01.12.2028 -
Sergio Barreto Oleksandriya Ativo 141 / 138 40% 4 01.12.2028 -
Marcos Antonio Sport Recife Ativo 137 / 145 40% 5 01.12.2028 -
Adam Randell Bristol City Ativo 140 / 139 40% 3 01.12.2028 -
Jonathan Bamba Chicago Fire Ativo 133 / 134 40% 1 01.12.2028 -
Matías Palacios Al Ain Ativo 140 / 149 40% 10 30.11.2028 -
Zaydou Youssouf Al-Fateh Ativo 142 / 144 40% 8 30.11.2028 -
Saša Lukić Utrecht Ativo 151 / 148 40% 6 30.11.2028 -
Lukáš Haraslín Al-Fateh Ativo 147 / 146 40% 6 30.11.2028 -
Yacine Adli Al-Shabab Ativo 149 / 147 40% 5 30.11.2028 -
Luciano Juba Bahia Ativo 131 / 137 40% 1 30.11.2028 -
Abduvohid Ne'matov Nasaf Ativo 128 / 142 40% 3 29.11.2028 -
Leopold Wahlstedt Rosenborg Ativo 128 / 124 40% 5 29.11.2028 -
Ryan Yates Mansfield Town Ativo 149 / 145 40% 3 29.11.2028 -
Sondre Auklend Bodo/Glimt Ativo 139 / 140 40% 3 29.11.2028 -
Philipp Köhn AS Nancy Ativo 139 / 136 40% 1 29.11.2028 -
Ryan Gauld Vancouver Whitecaps Ativo 137 / 135 40% 1 29.11.2028 -
Albert Guðmundsson Fiorentina Ativo 150 / 145 40% 19 27.11.2028 -
Eduardo Lozano Botafogo Ativo 144 / 149 40% 4 27.11.2028 -
Gabriel Brazão Santos Ativo 145 / 146 40% 5 26.11.2028 -
Ľubomír Belko Viking Ativo 136 / 138 40% 4 26.11.2028 -
Lucas Beltrán Fiorentina Ativo 149 / 147 40% 18 26.11.2028 -
Emerson Royal Flamengo Ativo 145 / 135 40% 3 26.11.2028 -
Flynn Downes Sheffield Wednesday Ativo 142 / 138 40% 5 26.11.2028 -
Jonathan Rowe Bologna Ativo 147 / 141 40% 2 26.11.2028 -
Dominik Greif Olympique Lyonnais Ativo 145 / 152 40% 1 26.11.2028 -
Alieu Njie Torino Ativo 141 / 143 40% 3 25.11.2028 -
Joël Piroe Leeds United Ativo 141 / 138 40% 6 25.11.2028 -
Jonathan Klinsmann Cesena Ativo 130 / 133 40% 4 24.11.2028 -
Fredrik Sjøvold Bodo/Glimt Ativo 137 / 136 40% 8 24.11.2028 -
Carlos Miguel Palmeiras Ativo 132 / 140 40% 5 24.11.2028 -
Luka Jović CFR Cluj Ativo 150 / 147 40% 4 24.11.2028 -
Melker Ellborg Sunderland Ativo 143 / 140 40% 1 24.11.2028 -
Roberto Piccoli Fiorentina Ativo 144 / 149 40% 35 23.11.2028 -
Saldanha Al Wasl Ativo 142 / 136 40% 10 23.11.2028 -
Oscar Al-Taawoun Ativo 155 / 148 40% 1 23.11.2028 -
David Brooks Bournemouth Ativo 148 / 149 40% 1 23.11.2028 -
Matheus Cunha Cruzeiro Ativo 140 / 130 40% 7 22.11.2028 -
Marek Rodák Al-Hilal Ativo 138 / 134 40% 7 22.11.2028 -
Leandro Brey Boca Juniors Ativo 143 / 146 40% 2 22.11.2028 -
Aschraf El Mahdioui Al-Taawoun Ativo 139 / 142 40% 9 20.11.2028 -
Julián Quiñones Atlético Mineiro Ativo 148 / 144 40% 60 20.11.2028 -
Jefferson Savarino Fluminense Ativo 140 / 134 40% 1 20.11.2028 -
Manuel Roffo HNK Rijeka Ativo 133 / 130 40% 4 19.11.2028 -
Alex Meret Napoli Ativo 158 / 154 40% 10 19.11.2028 -
Pedro Flamengo Ativo 149 / 143 40% 32 18.11.2028 -
Mateo Pellegrino Fiorentina Ativo 145 / 148 40% 17 18.11.2028 -
Filippo Rinaldi Parma Ativo 138 / 138 40% 7 17.11.2028 -
Hugo Souza Corinthians Ativo 137 / 130 40% 6 17.11.2028 -
Kiyani Zeggen AZ Ativo 142 / 144 40% 3 17.11.2028 -
Rico Henry River Plate Ativo 148 / 149 40% 7 16.11.2028 -
Jens Petter Hauge Bodo/Glimt Ativo 138 / 140 40% 2 16.11.2028 -
Zakaria Aboukhlal Pescara Ativo 145 / 145 40% 12 16.11.2028 -
Ismaël Bennacer Boca Juniors Ativo 145 / 142 40% 8 14.11.2028 -
Alan Lescano Argentinos Juniors Ativo 130 / 132 40% 1 14.11.2028 -
Riku Yamane Yokohama F. Marinos Ativo 133 / 138 40% 3 13.11.2028 -
Abubacarr Sedi Kinteh Al-Ahli Ativo 138 / 138 40% 2 13.11.2028 -
Carlos Coronel Fluminense Ativo 134 / 129 40% 5 12.11.2028 -
Anton Stach Reading Ativo 156 / 156 40% 1 11.11.2028 -
Kyrylo Fesiun Dynamo Kyiv Ativo 131 / 127 40% 4 10.11.2028 -
Vanja Milinković-Savić Atalanta Ativo 152 / 151 40% 2 10.11.2028 -
Dennis Cirkin Queens Park Rangers Ativo 136 / 136 40% 3 10.11.2028 -
Unai Marrero Real Sociedad Ativo 141 / 142 40% 5 10.11.2028 -
Josh Keeley Luton Town Ativo 142 / 141 40% 5 09.11.2028 -
Adrian Šemper Al-Fateh Ativo 142 / 143 40% 7 08.11.2028 -
Viktor Johansson Bournemouth Ativo 146 / 145 40% 5 07.11.2028 -
Jacopo Seghetti Empoli Ativo 138 / 140 40% 2 07.11.2028 -
Allan Saint-Maximin Charlotte Football Club Ativo 143 / 141 40% 2 06.11.2028 -
Uriel Antuna Dinamo Moscow Ativo 139 / 141 40% 1 04.11.2028 -
Boulaye Dia Lazio Ativo 146 / 144 40% 12 02.11.2028 -
Jay Gorter Pafos Ativo 134 / 128 40% 7 01.11.2028 -
Freddie Woodman Arsenal Ativo 136 / 135 40% 1 01.11.2028 -
Xavier Dziekoński Slask Ativo 133 / 142 40% 6 31.10.2028 -
Anthony Patterson Wrexham Ativo 138 / 136 40% 1 29.10.2028 -
Khalid Abdulrahman Al Shabab Ativo 139 / 138 40% 2 28.10.2028 -
Stefano Turati Bari Ativo 141 / 147 40% 4 28.10.2028 -
Cristian Rivero Real Sociedad Ativo 145 / 146 40% 7 28.10.2028 -
Iván Martín Racing Santander Ativo 150 / 150 40% 3 28.10.2028 -
Dominic Calvert-Lewin Aston Villa Ativo 146 / 149 40% 2 25.10.2028 -
Semuel Pizzignacco Monza Ativo 137 / 136 40% 2 22.10.2028 -
Dani Martín Levante Ativo 136 / 134 40% 1 22.10.2028 -
Roger Ibañez Al-Ahli Ativo 158 / 155 40% 5 20.10.2028 -
Santiago Ramos Mingo Bahia Ativo 139 / 139 40% 2 20.10.2028 -
Gabriel Słonina Reading Ativo 136 / 128 40% 1 19.10.2028 -
Lucas Paquetá Flamengo Ativo 137 / 138 40% 4 17.10.2028 -
Luis Sinisterra Cruzeiro Ativo 152 / 133 40% 1 17.10.2028 -
Tim Iroegbunam Peterborough United Ativo 145 / 152 40% 1 16.10.2028 -
Ki-Jana Hoever Sparta Prague Ativo 134 / 132 40% 1 16.10.2028 -
Joshua Quarshie Exeter City Ativo 140 / 139 40% 2 14.10.2028 -
Bobby Thomas Grimsby Town Ativo 142 / 138 40% 2 14.10.2028 -
Aihen Muñoz Ludogorets Ativo 143 / 153 40% 2 14.10.2028 -
Imrân Louza Ludogorets Ativo 132 / 129 40% 2 12.10.2028 -
Denis Genreau Melbourne Victory Ativo 145 / 142 40% 4 11.10.2028 -
Renan Lodi Atlético Mineiro Ativo 133 / 135 40% 3 11.10.2028 -
Lucas Piton Vasco da Gama Ativo 142 / 140 40% 1 11.10.2028 -
Artur Botafogo Ativo 138 / 138 40% 1 09.10.2028 -
Calebe Fortaleza Ativo 138 / 133 40% 1 09.10.2028 -
Gérson Cruzeiro Ativo 134 / 136 40% 1 09.10.2028 -
Nikola Vlašić Palermo Ativo 156 / 148 40% 4 07.10.2028 -
Abdoulkarim Traoré Al Ain Ativo 145 / 137 40% 1 07.10.2028 -
Caio Alexandre Bahia Ativo 129 / 131 40% 2 05.10.2028 -
Konstantinos Mavropanos Bradford City Ativo 146 / 139 40% 2 05.10.2028 -
Ramón Sosa Palmeiras Ativo 146 / 132 40% 1 05.10.2028 -
Trai Hume Aston Villa Ativo 145 / 144 40% 1 03.10.2028 -
Rodrigo Bentancur Maccabi Tel Aviv Ativo 162 / 153 40% 3 02.10.2028 -
Diego Costa Rostov Ativo 141 / 140 40% 2 28.09.2028 -
Lewis O'Brien Wrexham Ativo 138 / 133 40% 1 28.09.2028 -
Jonmi Magunagoitia Eibar Ativo 137 / 144 40% 1 26.09.2028 -
Franco Israel Hellas Verona Ativo 143 / 146 40% 2 25.09.2028 -
Jonathan Fischer FC Metz Ativo 148 / 144 40% 3 25.09.2028 -
Lautaro Morales Lanús Ativo 136 / 133 40% 2 24.09.2028 -
David Carmo Olympiacos Ativo 142 / 137 40% 5 23.09.2028 -
Victor Torp Bristol Rovers Ativo 139 / 136 40% 1 22.09.2028 -
Nahitan Nández Bodo/Glimt Ativo 137 / 133 40% 8 20.09.2028 -
Arthur Flamengo Ativo 139 / 142 40% 1 20.09.2028 -
Matthew Cox Rotherham United Ativo 130 / 133 40% 1 19.09.2028 -
Joaquín Piquerez Palmeiras Ativo 138 / 144 40% 1 17.09.2028 -
Steven Benda West Ham United Ativo 130 / 130 40% 4 15.09.2028 -
Oliver Christensen Napoli Ativo 134 / 132 40% 1 15.09.2028 -
Vladislav Torop CSKA Moscow Ativo 148 / 134 40% 4 12.09.2028 -
Toti Wolverhampton Ativo 139 / 136 40% 1 11.09.2028 -
Danilo Botafogo Ativo 140 / 146 40% 3 10.09.2028 -
Femi Seriki Sheffield United Ativo 140 / 138 40% 1 10.09.2028 -
Jaime Seoane Al-Faisaly Ativo 144 / 148 40% 21 09.09.2028 -
Jhon Arias Palmeiras Ativo 146 / 144 40% 2 09.09.2028 -
Merih Demiral Al-Ahli Ativo 148 / 146 40% 2 08.09.2028 -
Mohamed Simakan Persepolis Ativo 152 / 147 40% 1 07.09.2028 -
Taylor Harwood-Bellis Stockport County Ativo 139 / 142 40% 1 06.09.2028 -
Sean Longstaff Leeds United Ativo 143 / 148 40% 1 06.09.2028 -
Carlos Marín Albacete Ativo 137 / 142 40% 9 05.09.2028 -
Tosin Adarabioyo Grêmio Ativo 142 / 150 40% 1 05.09.2028 -
Alexey Miranchuk Atlanta United FC Ativo 147 / 134 40% 24 03.09.2028 -
Nicolás de la Cruz Flamengo Ativo 133 / 129 40% 1 03.09.2028 -
Balázs Tóth Blackburn Rovers Ativo 139 / 133 40% 10 02.09.2028 -
Amir Saipi Mallorca Ativo 131 / 139 40% 4 01.09.2028 -
Fabricio Iacovich Girona Ativo 130 / 139 40% 1 01.09.2028 -
Matt Freese Shakhtar Ativo 131 / 147 40% 8 31.08.2028 -
Arnaud Bodart Paris Saint-Germain Ativo 139 / 139 40% 2 31.08.2028 -
Aitor Fraga Real Sociedad Ativo 135 / 145 40% 2 30.08.2028 -
Răzvan Sava Dinamo Zagreb Ativo 131 / 137 40% 4 25.08.2028 -
Devis Vásquez AS Roma Ativo 136 / 134 40% 3 24.08.2028 -
Nicolas Madsen Queens Park Rangers Ativo 141 / 137 40% 1 24.08.2028 -
Max Kilman West Ham United Ativo 137 / 140 40% 1 24.08.2028 -
Luther Singh AEL Ativo 138 / 130 40% 2 22.08.2028 -
Pascal Struijk Brighton Ativo 149 / 152 40% 1 22.08.2028 -
Eric Smith VfB Stuttgart Ativo 147 / 142 40% 1 22.08.2028 -
Marco Pompetti Padova Ativo 138 / 138 40% 3 20.08.2028 -
Pol Lirola Hellas Verona Ativo 141 / 136 40% 4 20.08.2028 -
Antoine Bernede Hellas Verona Ativo 138 / 141 40% 1 20.08.2028 -
Faisal Omar Al Shabab Ativo 133 / 141 40% 3 18.08.2028 -
Marius Marin Al Nasr Ativo 143 / 139 40% 9 18.08.2028 -
Gaetano Castrovilli Cesena Ativo 138 / 137 40% 3 18.08.2028 -
Tommaso Berti Cesena Ativo 143 / 146 40% 3 18.08.2028 -
Sebastian Walukiewicz Sassuolo Ativo 139 / 135 40% 1 18.08.2028 -
Enrico Gallo Chamois Niortais Ativo 135 / 134 40% 1 16.08.2028 -
Max Meyer APOEL Ativo 144 / 131 40% 1 15.08.2028 -
Grégoire Coudert Burnley Ativo 136 / 140 40% 2 14.08.2028 -
Justin Bijlow Atalanta Ativo 153 / 146 40% 5 12.08.2028 -
Jacob Widell Zetterström Stoke City Ativo 142 / 136 40% 4 12.08.2028 -
Sebastiano Desplanches Palermo Ativo 147 / 147 40% 1 10.08.2028 -
Guglielmo Vicario Cardiff City Ativo 161 / 160 40% 2 09.08.2028 -
Maílson Al-Taawoun Ativo 138 / 130 40% 16 07.08.2028 -
Fran Vieites Walsall Ativo 133 / 138 40% 5 05.08.2028 -
Kike Pérez Venezia Ativo 141 / 138 40% 5 03.08.2028 -
Martin Frese Hellas Verona Ativo 135 / 139 40% 2 03.08.2028 -
Di'Shon Bernard Sheffield Wednesday Ativo 137 / 128 40% 1 03.08.2028 -
Eliot Matazo Oldham Athletic Ativo 134 / 133 40% 1 03.08.2028 -
Ianis Hagi Alanyaspor Ativo 140 / 126 40% 1 03.08.2028 -
Marquinhos APOEL Ativo 146 / 125 40% 5 02.08.2028 -
Cleiton Spartak Moscow Ativo 127 / 137 40% 1 02.08.2028 -
Amer Al Suwaidi Al Ahli Rejeitado 109 / 112 79% 1 31.07.2028 Rejeitar
Rafael Rodrigues Al Ain Ativo 134 / 136 40% 6 29.07.2028 -
Julian Weigl Najran Ativo 142 / 148 40% 10 28.07.2028 -
Alex Palmer Ipswich Town Ativo 136 / 131 40% 7 27.07.2028 -
Tommaso Martinelli Fiorentina Ativo 138 / 143 40% 1 27.07.2028 -
Paik Seung-Ho Birmingham Ativo 137 / 131 40% 2 26.07.2028 -
Rolando Mandragora Torino Ativo 150 / 152 40% 4 26.07.2028 -
Ben Cabango Gillingham Ativo 135 / 138 40% 1 26.07.2028 -
Sandi Lovrić Juve Stabia Ativo 141 / 140 40% 2 23.07.2028 -
Tom Davies Barnet Ativo 137 / 139 40% 1 23.07.2028 -
Timothy Castagne Stoke City Ativo 146 / 138 40% 2 22.07.2028 -
Valentino Lazaro Al Ain Ativo 143 / 136 40% 8 21.07.2028 -
Renato Tapia Al Wasl Ativo 145 / 135 40% 7 18.07.2028 -
Lucas Perri Leeds United Ativo 152 / 152 40% 1 11.07.2028 -
Majed Hassan Sharjah Perdido 112 / 114 79% 1 10.07.2028 -
Florian Grillitsch Frosinone Ativo 140 / 137 40% 4 04.07.2028 -
Brandon Austin Brighton Ativo 140 / 134 40% 2 02.07.2028 -
Mehdi Ghayedi Al Nasr Ativo 136 / 134 40% 32 01.07.2028 -
Stefan Posch Como Ativo 143 / 139 40% 1 30.06.2028 -
Alessandro Plizzari Juve Stabia Ativo 134 / 127 40% 1 28.06.2028 -
Vítězslav Jaroš Preston Ativo 149 / 152 40% 2 21.06.2028 -
Oufa Shobeir MC Alger Ativo 125 / 132 40% 11 18.06.2028 -
Óscar Al-Diriyah Ativo 140 / 137 40% 14 15.06.2028 -
Eguinaldo Shakhtar Ativo 142 / 140 40% 7 15.06.2028 -
Mathias Jensen Brentford Ativo 149 / 142 40% 1 14.06.2028 -
Nikola Čavlina Dinamo Zagreb Ativo 126 / 139 40% 2 13.06.2028 -
Emil Audero Como Ativo 138 / 135 40% 1 12.06.2028 -
Niv Eliasi Hapoel Beer Sheva Ativo 128 / 125 40% 3 11.06.2028 -
Patrick Schulte Columbus Crew Ativo 134 / 132 40% 2 09.06.2028 -
Diego Romero Universitario Ativo 134 / 121 40% 1 08.06.2028 -
Luis Ingolotti Atlético Tucumán Ativo 132 / 125 40% 1 08.06.2028 -
Mario Hermoso AS Roma Ativo 148 / 143 40% 1 08.06.2028 -
Facundo Sanguinetti Banfield Ativo 136 / 127 40% 1 05.06.2028 -
Ruslan Neshcheret Oleksandriya Ativo 135 / 123 40% 5 04.06.2028 -
Denis Adamov Zenit Ativo 121 / 127 40% 12 02.06.2028 -
Roman Celentano FC Cincinnati Ativo 136 / 138 40% 1 02.06.2028 -
Omri Glazer Maccabi Haifa Ativo 124 / 129 40% 5 01.06.2028 -
Alessandro Bianco Spartak Moscow Ativo 142 / 147 40% 1 01.06.2028 -
Jordy Makengo SC Freiburg Ativo 136 / 138 40% 1 01.06.2028 -
Pep Chavarría Chelsea Ativo 141 / 141 40% 1 31.05.2028 -
Nico Elvedi Leeds United Ativo 141 / 145 40% 1 31.05.2028 -
Alejandro Rodríguez Melgar Ativo 125 / 136 40% 2 30.05.2028 -
Gonzalo Plata Nacional Rejeitado 139 / 136 40% 8 27.05.2028 -
Dayne St. Clair Inter Miami CF Ativo 138 / 140 40% 2 27.05.2028 -
Hugo Al Wasl Ativo 124 / 132 40% 1 27.05.2028 -
Lukas Jensen Millwall Ativo 127 / 125 40% 6 25.05.2028 -
Alexei Rojas Fedorushchenko Barrow AFC Ativo 125 / 125 40% 1 25.05.2028 -
Novak Mićović LA Galaxy Ativo 124 / 127 40% 1 23.05.2028 -
Bertrand Traoré Sunderland Ativo 135 / 131 40% 19 22.05.2028 -
Mateo Cassierra Atlético Mineiro Ativo 131 / 124 40% 1 22.05.2028 -
Mao Hosoya Santos Ativo 146 / 129 40% 6 21.05.2028 -
Beto Napoli Ativo 136 / 141 40% 2 21.05.2028 -
Che Adams Torino Rejeitado 141 / 143 40% 26 20.05.2028 -
Artem Bondarenko Shakhtar Ativo 135 / 139 40% 11 20.05.2028 -
Frank Onyeka Coventry City Ativo 137 / 142 40% 4 20.05.2028 -
Petar Musa FC Dallas Ativo 143 / 127 40% 3 20.05.2028 -
Veljko Birmančević Persepolis Ativo 141 / 139 40% 3 19.05.2028 -
Federico Bonazzoli Pisa Ativo 131 / 132 40% 4 18.05.2028 -
Dany Mota Bologna Ativo 139 / 138 40% 8 18.05.2028 -
Sol Brynn Bradford City Ativo 137 / 133 40% 1 18.05.2028 -
Evgeny Latyshonok Nizhniy Novgorod Ativo 125 / 125 40% 6 17.05.2028 -
Toni Fruk Talleres Ativo 140 / 143 40% 5 15.05.2028 -
Giovanni Simeone Internacional Rejeitado 137 / 129 40% 6 15.05.2028 -
Hwang Hee-Chan Wolverhampton Ativo 136 / 133 40% 5 11.05.2028 -
Oleksandr Kemkin Karpaty Ativo 122 / 136 40% 3 10.05.2028 -
Lyle Foster Rosenborg Ativo 127 / 143 40% 5 08.05.2028 -
Oskar Pietuszewski Estrela da Amadora Ativo 134 / 141 40% 1 08.05.2028 -
Luan Pereira Sharjah Ativo 133 / 133 40% 6 07.05.2028 -
Lucas Boyé Barcelona Ativo 138 / 144 40% 5 07.05.2028 -
Matthias Braunöder Carrarese Ativo 134 / 133 40% 1 05.05.2028 -
Josh Brownhill Al-Shabab Ativo 134 / 136 40% 13 03.05.2028 -
Martín Payero Cremonese Ativo 139 / 138 40% 1 03.05.2028 -
Demarai Gray Birmingham Ativo 136 / 136 40% 2 01.05.2028 -
Daichi Kamada Luton Town Ativo 146 / 140 40% 2 01.05.2028 -
Cristopher Varela Deportivo La Guaira Ativo 133 / 127 40% 1 26.04.2028 -
Orazio Messina Torino Ativo 132 / 137 40% 7 23.04.2028 -
Michele Cerofolini Empoli Ativo 132 / 136 40% 1 22.04.2028 -
Murphy Cooper Plymouth Argyle Ativo 130 / 131 40% 10 21.04.2028 -
Sam Szmodics Ipswich Town Ativo 131 / 137 40% 14 21.04.2028 -
Yarden Shua Beitar Jerusalem Ativo 137 / 123 40% 1 21.04.2028 -
Max Cleworth Wrexham Ativo 127 / 135 40% 1 21.04.2028 -
Vinicius Tobias Shakhtar Ativo 147 / 130 40% 1 21.04.2028 -
Aubrey Modiba Persepolis Ativo 129 / 129 40% 2 17.04.2028 -
Sebastiano Luperto Cremonese Ativo 140 / 141 40% 2 15.04.2028 -
Matheus Pereira Cruzeiro Ativo 149 / 130 40% 1 10.04.2028 -
Majid Jahanbakhsh Rah Ahan Ativo 137 / 127 40% 2 09.04.2028 -
Martín Ojeda Orlando City Ativo 137 / 136 40% 3 09.04.2028 -
Matt Clarke Derby County Ativo 131 / 131 40% 3 08.04.2028 -
Nicolás Giménez Al Wasl Ativo 127 / 128 40% 8 06.04.2028 -
Musab Al-Juwayr Al-Qadisiyah Ativo 140 / 133 40% 11 03.04.2028 -
Sydie Peck Swindon Town Ativo 132 / 139 40% 2 03.04.2028 -
Benjamín Rollheiser Santos Ativo 130 / 141 40% 1 03.04.2028 -
Lucas Veríssimo Santos Ativo 138 / 144 40% 2 01.04.2028 -
Nikita Haikin Bodo/Glimt Ativo 147 / 138 40% 1 28.03.2028 -
Ollie Watkins Al-Hilal Ativo 160 / 150 40% 5 26.03.2028 -
Lucas Arcanjo Vitória Ativo 133 / 127 40% 1 24.03.2028 -
Fabrício Bruno Cruzeiro Ativo 142 / 142 40% 3 22.03.2028 -
Teboho Mokoena Mamelodi Sundowns Ativo 147 / 145 40% 8 21.03.2028 -
Damián Bobadilla Sport Recife Ativo 140 / 132 40% 2 21.03.2028 -
Awer Mabil Melbourne City Ativo 125 / 125 40% 1 21.03.2028 -
Vladan Kovačević Norwich City Ativo 131 / 124 40% 10 16.03.2028 -
Matheus Henrique Cruzeiro Ativo 136 / 140 40% 1 15.03.2028 -
Marcel Ratnik Al Ain Ativo 128 / 125 40% 2 13.03.2028 -
Lloyd Jones Charlton Athletic Ativo 135 / 131 40% 1 13.03.2028 -
Alfonso Pedraza Lazio Ativo 143 / 142 40% 1 10.03.2028 -
Jack Walton Preston Ativo 127 / 119 40% 2 09.03.2028 -
Gaëtan Coucke Sampdoria Ativo 127 / 124 40% 2 06.03.2028 -
Enzo Díaz Sport Recife Ativo 133 / 137 40% 1 01.03.2028 -
Mykola Shaparenko Dynamo Kyiv Ativo 130 / 134 40% 1 29.02.2028 -
Bruno Gomes Internacional Ativo 138 / 123 40% 1 26.02.2028 -
Gustavo Marques Bragantino Ativo 135 / 133 40% 1 26.02.2028 -
Nino Dinamo Moscow Ativo 149 / 139 40% 2 25.02.2028 -
Paulo Henrique Vasco da Gama Ativo 123 / 124 40% 2 22.02.2028 -
Hidemasa Morita Hull City Ativo 144 / 142 40% 4 20.02.2028 -
Andreas Pereira Palmeiras Ativo 136 / 129 40% 1 20.02.2028 -
Ali Majrashi Al-Ahli Ativo 134 / 136 40% 4 18.02.2028 -
Zack Steffen Colorado Rapids Ativo 127 / 130 40% 2 18.02.2028 -
Riccardo Gagno Vicenza Ativo 126 / 126 40% 2 14.02.2028 -
Will Hughes Bloemfontein Celtic Ativo 134 / 139 40% 7 12.02.2028 -
João Victor CSKA Moscow Ativo 133 / 124 40% 1 10.02.2028 -
César Montes Lokomotiv Moscow Ativo 130 / 140 40% 2 09.02.2028 -
David Brekalo Orlando City Ativo 131 / 120 40% 3 05.02.2028 -
Franck Kessié Atalanta Ativo 153 / 146 40% 1 05.02.2028 -
Aníbal Moreno River Plate Ativo 128 / 134 40% 2 01.02.2028 -
Odin Bjørtuft Bodo/Glimt Ativo 139 / 129 40% 1 01.02.2028 -
Maxim Borisko CSKA Moscow Ativo 136 / 124 40% 1 01.02.2028 -
Emil Breivik Molde Ativo 140 / 133 40% 3 25.01.2028 -
Hassan Al-Tambakti Al-Hilal Ativo 135 / 133 40% 2 23.01.2028 -
Adryelson Al Wasl Ativo 135 / 136 40% 2 22.01.2028 -
Aslak Fonn Witry Rosenborg Ativo 125 / 124 40% 2 20.01.2028 -
Gedson Fernandes Spartak Moscow Ativo 136 / 129 40% 1 15.01.2028 -
Nikola Vasilj Racing Club Ativo 132 / 129 40% 1 14.01.2028 -
Lucas Acosta Aldosivi Ativo 122 / 119 40% 1 14.01.2028 -
Joe Lumley Sheffield Wednesday Ativo 122 / 118 40% 2 11.01.2028 -
Drake Callender Minnesota United FC Ativo 117 / 113 40% 1 09.01.2028 -
Amin Sarr Hellas Verona Ativo 136 / 136 40% 1 30.12.2027 -
Florin Tănase Omonoia Ativo 133 / 133 40% 4 21.12.2027 -
Myrto Uzuni Austin FC Ativo 131 / 122 40% 13 20.12.2027 -
Jack Hendry Al-Ettifaq Ativo 132 / 122 40% 3 09.12.2027 -
Rubens Dinamo Moscow Ativo 126 / 135 40% 1 09.12.2027 -
Juan Carlos Portillo River Plate Ativo 133 / 124 40% 7 06.12.2027 -
Sondre Brunstad Fet Bodo/Glimt Ativo 126 / 129 40% 2 06.12.2027 -
Damián Fernández Defensa y Justicia Ativo 127 / 123 40% 2 01.12.2027 -
David Douděra New York Red Bulls Ativo 138 / 133 40% 2 01.12.2027 -
Joaquín García Vélez Ativo 138 / 138 40% 1 13.11.2027 -
Otávio Spartak Moscow Rejeitado 143 / 130 40% 15 03.11.2027 -
Gastón Hernández San Lorenzo Ativo 122 / 122 40% 2 30.10.2027 -
Gonzalo Montiel River Plate Ativo 123 / 137 40% 4 24.10.2027 -
Franco Ibarra Rosario Central Ativo 121 / 132 40% 2 19.10.2027 -
Nectar Triantis Minnesota United FC Ativo 119 / 128 40% 1 19.10.2027 -
Hirving Lozano San Diego Football Club Ativo 124 / 144 40% 9 15.10.2027 -
Takahiro Sekine Sydney FC Ativo 124 / 135 40% 2 12.10.2027 -
Marco Di Cesare Racing Club Ativo 139 / 123 40% 1 10.10.2027 -
Musa Barrow ES Setif Ativo 145 / 132 40% 5 08.10.2027 -
Eduard Löwen San Jose Earthquakes Ativo 134 / 120 40% 1 07.10.2027 -
Nicolás Romero Minnesota United FC Ativo 127 / 138 40% 2 06.10.2027 -
Lautaro Di Lollo Boca Juniors Ativo 122 / 131 40% 1 05.10.2027 -
Miles Robinson FC Cincinnati Ativo 140 / 123 40% 3 03.10.2027 -
Oli McBurnie Hull City Ativo 131 / 133 40% 5 27.09.2027 -
Marco Pellegrino Boca Juniors Ativo 136 / 130 40% 1 15.09.2027 -
Marcel Hartel St. Louis CITY SC Ativo 135 / 120 40% 1 14.09.2027 -
Federico Navarro Rosario Central Ativo 126 / 124 40% 1 10.09.2027 -
Jherson Mosquera Newell's Old Boys Ativo 118 / 133 40% 1 06.09.2027 -
Emanuel Mammana Vélez Ativo 133 / 139 40% 1 06.09.2027 -
Louis Verstraete Auckland FC Ativo 117 / 123 40% 1 05.09.2027 -
Neal Maupay Olympique de Marseille Ativo 145 / 133 40% 1 30.08.2027 -
Fredrik Bjørkan Bodo/Glimt Ativo 122 / 137 40% 1 12.08.2027 -
Alexandr Chernikov Krasnodar Ativo 144 / 143 40% 3 30.07.2027 -
Bongani Khune SuperSport United Ativo 143 / 131 40% 3 30.07.2027 -
Joel Pohjanpalo Palermo Ativo 127 / 138 40% 4 23.07.2027 -
Tormena Krasnodar Ativo 133 / 136 40% 4 20.07.2027 -
Volodymyr Brazhko Dynamo Kyiv Ativo 141 / 124 40% 1 17.07.2027 -
Mirlind Daku Spartak Moscow Ativo 141 / 139 40% 4 14.07.2027 -
Jota Silva Olympiacos Ativo 143 / 125 40% 1 20.06.2027 -
Oswin Appollis Orlando Pirates Ativo 120 / 132 40% 5 28.05.2027 -
Josh Murphy Portsmouth Ativo 125 / 123 40% 4 27.05.2027 -
Samu Maccabi Netanya Ativo 120 / 115 40% 5 26.05.2027 -
Ivor Pandur Hull City Ativo 132 / 134 40% 3 26.05.2027 -
Shahriar Rezaeian Siah Jamegan Ativo 105 / 115 40% 1 25.05.2027 -
Daniel Bachmann Watford Ativo 114 / 114 40% 1 24.05.2027 -
Mohamed Kanno Al-Hilal Ativo 123 / 125 40% 8 23.05.2027 -
Rustam Yatimov Rostov Ativo 109 / 112 40% 3 19.05.2027 -
Liam Roberts Mansfield Town Ativo 111 / 111 40% 2 19.05.2027 -
Peter Olayinka Al-Wehda Ativo 119 / 124 40% 4 17.05.2027 -
Calum Chambers Cardiff City Ativo 115 / 120 40% 1 17.05.2027 -
Fabio Gerli Modena Ativo 125 / 123 40% 1 17.05.2027 -
Gianluca Saro Foggia Ativo 119 / 109 40% 1 15.05.2027 -
Morgan Billiat SuperSport United Ativo 128 / 122 40% 10 12.05.2027 -
Paulo Azzi Modena Ativo 123 / 127 40% 1 11.05.2027 -
Nicola Pietrangeli Juve Stabia Ativo 121 / 112 40% 1 11.05.2027 -
Ibrahim Bayesh Al Dhafra Ativo 123 / 121 40% 3 09.05.2027 -
Jason Al-Fayha Ativo 120 / 118 40% 7 08.05.2027 -
Mohammad Mehdi Mohebi Persepolis Ativo 126 / 118 40% 1 08.05.2027 -
Daniel Naumov Botev Plovdiv Ativo 104 / 101 40% 1 08.05.2027 -
Marouan Azarkan Al Nasr Ativo 124 / 122 40% 5 04.05.2027 -
Sondre Tronstad Blackburn Rovers Ativo 121 / 118 40% 5 04.05.2027 -
Lorenzo Carissoni Padova Ativo 127 / 112 40% 3 28.04.2027 -
Heorhii Yermakov Metalist Ativo 121 / 130 40% 2 28.04.2027 -
Tommaso Augello Palermo Ativo 126 / 134 40% 1 28.04.2027 -
Sipho Chaine Orlando Pirates Ativo 122 / 116 40% 6 25.04.2027 -
Samuele Perisan Reggiana Ativo 113 / 111 40% 5 25.04.2027 -
Aaron Collins Milton Keynes Dons Ativo 126 / 109 40% 2 25.04.2027 -
Evgeny Staver Rubin Ativo 117 / 123 40% 1 23.04.2027 -
Turki Al-Ammar Al-Qadisiyah Ativo 125 / 124 40% 8 19.04.2027 -
Ryan Hedges Derby County Ativo 125 / 121 40% 2 19.04.2027 -
Nazar Voloshyn Dynamo Kyiv Ativo 125 / 137 40% 1 19.04.2027 -
Alessio Cragno Südtirol Ativo 124 / 117 40% 1 17.04.2027 -
Bradley Zwane SuperSport United Ativo 109 / 109 40% 3 14.04.2027 -
Mohau Nkota Al-Ettifaq Ativo 115 / 122 40% 2 12.04.2027 -
Will Mannion Charlton Athletic Ativo 114 / 112 40% 1 08.04.2027 -
Hugo Moura Al-Fayha Ativo 124 / 120 40% 8 05.04.2027 -
Max Lowe Sheffield Wednesday Ativo 111 / 118 40% 1 05.04.2027 -
Nicolás Arévalo Metalist Ativo 127 / 114 40% 1 01.04.2027 -
Kennedy Boateng Al-Fateh Ativo 130 / 124 40% 2 31.03.2027 -
Bongani Zungu Ajax Cape Town Ativo 137 / 116 40% 5 28.03.2027 -
Williams Mabunda Ajax Cape Town Ativo 108 / 116 40% 5 24.03.2027 -
Alexandr Selikhov Ural Ativo 112 / 120 40% 2 24.03.2027 -
Ivan Lomaev Ufa Ativo 107 / 113 40% 1 23.03.2027 -
Yassine Benzia Al-Qadisiyah Ativo 118 / 119 40% 6 17.03.2027 -
Alex Bass Peterborough United Ativo 112 / 110 40% 1 15.03.2027 -
Joel Pereira Reading Ativo 105 / 117 40% 1 12.03.2027 -
Álvaro Medrán Al-Ettifaq Ativo 124 / 136 40% 7 06.03.2027 -
Álex Centelles Levski Ativo 127 / 113 40% 4 06.03.2027 -
Faisal Al-Ghamdi Al-Ittihad Ativo 114 / 123 40% 1 06.03.2027 -
Patrik Demjén MTK Budapest Ativo 110 / 114 40% 2 28.02.2027 -
Emmanuel Boateng Hapoel Tel Aviv Ativo 130 / 126 40% 1 26.02.2027 -
Jordan Lotomba Bloemfontein Celtic Ativo 121 / 132 40% 5 23.02.2027 -
Pedro Rocha Juventude Ativo 112 / 108 40% 1 18.02.2027 -
Ondrej Duda Al Shaab Ativo 141 / 130 40% 2 14.02.2027 -
Muhannad Al-Shanqiti Al-Ittihad Ativo 116 / 122 40% 1 08.02.2027 -
Žiga Frelih NK Celje Ativo 113 / 110 40% 1 08.02.2027 -
Álvaro Montero Al Ain Ativo 132 / 131 40% 1 04.02.2027 -
Son Ludogorets Ativo 113 / 128 40% 1 04.02.2027 -
Zineddine Belaïd Al-Taawoun Ativo 130 / 113 40% 1 28.01.2027 -
Karim El Berkaoui Al-Khaleej Ativo 115 / 125 40% 4 29.12.2026 -
Suleiman Camara Slovan Bratislava Ativo 134 / 129 40% 1 25.12.2026 -
Bernard Tekpetey Ludogorets Ativo 113 / 120 40% 3 24.12.2026 -
Luis Chávez Dinamo Moscow Ativo 129 / 125 40% 3 15.12.2026 -
Fahad Al Menhali Al Shabab Ativo 123 / 123 40% 1 10.12.2026 -
Nikita Krivtsov Krasnodar Ativo 138 / 138 40% 1 30.11.2026 -
Eldar Ćivić Baltika Ativo 113 / 125 40% 1 26.11.2026 -
Miguel Crespo Al-Khaleej Ativo 113 / 115 40% 2 18.11.2026 -
Armstrong Oko-Flex Levski Ativo 109 / 110 40% 1 18.11.2026 -
Saviour Godwin Baniyas Ativo 126 / 115 40% 1 01.11.2026 -
João Cancelo Spartak Moscow Ativo 145 / 138 40% 3 25.10.2026 -
Lechi Sadulaev Akhmat Grozny Ativo 119 / 133 40% 2 12.10.2026 -
Lucas Souto Defensa y Justicia Ativo 118 / 119 40% 4 08.10.2026 -
Ramiro Ruiz Rodríguez Atlético Tucumán Ativo 115 / 113 40% 1 19.09.2026 -
Jobson Al Dhafra Ativo 120 / 130 40% 1 09.09.2026 -
Kurt Zouma Al Wasl Ativo 131 / 121 40% 1 11.08.2026 -
Emanuel Coronel Rosario Central Ativo 124 / 113 40% 1 01.08.2026 -